createdAt,value
2023-05-08T00:02:14.544Z,100.00
2023-05-08T00:04:43.072Z,100.00
2023-05-08T00:07:11.609Z,100.00
2023-05-08T00:09:39.943Z,100.00
2023-05-08T00:12:09.037Z,100.00
2023-05-08T00:14:38.788Z,100.00
2023-05-08T00:17:07.180Z,100.00
2023-05-08T00:19:35.579Z,100.00
2023-05-08T00:22:04.161Z,100.00
2023-05-08T00:24:32.744Z,100.00
2023-05-08T00:27:01.137Z,100.00
2023-05-08T00:29:29.487Z,100.00
2023-05-08T00:31:59.210Z,100.00
2023-05-08T00:34:27.725Z,100.00
2023-05-08T00:36:59.092Z,100.00
2023-05-08T00:39:27.554Z,100.00
2023-05-08T00:41:56.068Z,100.00
2023-05-08T00:44:24.427Z,100.00
2023-05-08T00:46:53.400Z,100.00
2023-05-08T00:49:23.600Z,100.00
2023-05-08T00:51:53.699Z,100.00
2023-05-08T00:54:22.958Z,100.00
2023-05-08T00:56:53.046Z,100.00
2023-05-08T00:59:22.300Z,100.00
2023-05-08T01:01:52.190Z,100.00
2023-05-08T01:04:22.472Z,100.00
2023-05-08T01:06:52.486Z,100.00
2023-05-08T01:09:20.823Z,100.00
2023-05-08T01:12:11.445Z,100.00
2023-05-08T01:14:56.410Z,100.00
2023-05-08T01:17:33.149Z,100.00
2023-05-08T01:20:11.164Z,100.00
2023-05-08T01:23:04.946Z,100.00
2023-05-08T01:25:59.298Z,100.00
2023-05-08T01:29:00.579Z,100.00
2023-05-08T01:31:44.743Z,100.00
2023-05-08T01:34:21.173Z,100.00
2023-05-08T01:36:54.282Z,100.00
2023-05-08T01:39:29.873Z,100.00
2023-05-08T01:42:03.784Z,100.00
2023-05-08T01:44:38.229Z,100.00
2023-05-08T01:47:10.739Z,100.00
2023-05-08T01:49:43.222Z,100.00
2023-05-08T01:52:19.179Z,100.00
2023-05-08T01:54:56.738Z,100.00
2023-05-08T01:57:27.745Z,100.00
2023-05-08T01:59:58.789Z,100.00
2023-05-08T02:02:29.593Z,100.00
2023-05-08T02:05:00.780Z,100.00
2023-05-08T02:07:29.559Z,100.00
2023-05-08T02:09:59.036Z,100.00
2023-05-08T02:12:29.092Z,100.00
2023-05-08T02:14:58.975Z,100.00
2023-05-08T02:17:29.022Z,100.00
2023-05-08T02:19:59.970Z,100.00
2023-05-08T02:22:29.594Z,100.00
2023-05-08T02:24:59.382Z,100.00
2023-05-08T02:27:29.991Z,100.00
2023-05-08T02:30:00.562Z,100.00
2023-05-08T02:32:31.571Z,100.00
2023-05-08T02:35:03.613Z,100.00
2023-05-08T02:37:35.661Z,100.00
2023-05-08T02:40:07.406Z,100.00
2023-05-08T02:42:36.188Z,100.00
2023-05-08T02:45:05.830Z,100.00
2023-05-08T02:47:43.292Z,100.00
2023-05-08T02:50:19.990Z,100.00
2023-05-08T02:52:51.936Z,100.00
2023-05-08T02:55:36.271Z,100.00
2023-05-08T02:58:11.531Z,100.00
2023-05-08T03:00:46.170Z,100.00
2023-05-08T03:03:21.012Z,100.00
2023-05-08T03:05:54.928Z,100.00
2023-05-08T03:08:28.713Z,100.00
2023-05-08T03:11:02.243Z,100.00
2023-05-08T03:13:35.413Z,100.00
2023-05-08T03:16:06.334Z,100.00
2023-05-08T03:18:37.896Z,100.00
2023-05-08T03:21:09.597Z,100.00
2023-05-08T03:23:40.215Z,100.00
2023-05-08T03:26:09.548Z,100.00
2023-05-08T03:28:40.160Z,100.00
2023-05-08T03:31:09.137Z,100.00
2023-05-08T03:33:40.116Z,100.00
2023-05-08T03:36:10.375Z,100.00
2023-05-08T03:38:39.090Z,100.00
2023-05-08T03:41:09.320Z,100.00
2023-05-08T03:43:39.398Z,100.00
2023-05-08T03:46:08.223Z,100.00
2023-05-08T03:48:38.746Z,100.00
2023-05-08T03:51:08.112Z,100.00
2023-05-08T03:53:40.918Z,100.00
2023-05-08T03:56:09.422Z,100.00
2023-05-08T03:58:43.197Z,100.00
2023-05-08T04:01:19.509Z,100.00
2023-05-08T04:03:54.866Z,100.00
2023-05-08T04:06:42.027Z,100.00
2023-05-08T04:09:25.326Z,100.00
2023-05-08T04:12:03.208Z,100.00
2023-05-08T04:14:38.752Z,100.00
2023-05-08T04:17:10.832Z,100.00
2023-05-08T04:19:44.134Z,100.00
2023-05-08T04:22:14.036Z,100.00
2023-05-08T04:24:46.686Z,100.00
2023-05-08T04:27:17.341Z,100.00
2023-05-08T04:29:46.317Z,100.00
2023-05-08T04:32:15.529Z,100.00
2023-05-08T04:34:44.136Z,100.00
2023-05-08T04:37:25.702Z,100.00
2023-05-08T04:39:55.966Z,100.00
2023-05-08T04:42:25.982Z,100.00
2023-05-08T04:44:56.148Z,100.00
2023-05-08T04:47:24.694Z,100.00
2023-05-08T04:49:53.284Z,100.00
2023-05-08T04:52:21.659Z,100.00
2023-05-08T04:54:50.363Z,100.00
2023-05-08T04:57:20.594Z,100.00
2023-05-08T04:59:49.776Z,100.00
2023-05-08T05:02:18.394Z,100.00
2023-05-08T05:04:48.366Z,100.00
2023-05-08T05:07:17.334Z,100.00
2023-05-08T05:09:45.980Z,100.00
2023-05-08T05:12:14.367Z,100.00
2023-05-08T05:14:44.172Z,100.00
2023-05-08T05:17:12.892Z,100.00
2023-05-08T05:19:41.464Z,100.00
2023-05-08T05:22:10.179Z,100.00
2023-05-08T05:24:39.754Z,100.00
2023-05-08T05:27:08.210Z,100.00
2023-05-08T05:29:36.927Z,100.00
2023-05-08T05:32:09.086Z,100.00
2023-05-08T05:34:37.540Z,100.00
2023-05-08T05:37:05.906Z,100.00
2023-05-08T05:39:35.751Z,100.00
2023-05-08T05:42:04.372Z,100.00
2023-05-08T05:44:33.076Z,100.00
2023-05-08T05:47:01.815Z,100.00
2023-05-08T05:49:31.844Z,100.00
2023-05-08T05:52:00.305Z,100.00
2023-05-08T05:54:29.192Z,100.00
2023-05-08T05:56:57.943Z,100.00
2023-05-08T05:59:26.379Z,100.00
2023-05-08T06:06:09.959Z,100.00
2023-05-08T06:08:38.454Z,100.00
2023-05-08T06:11:06.851Z,100.00
2023-05-08T06:13:35.507Z,100.00
2023-05-08T06:16:03.966Z,100.00
2023-05-08T06:18:32.299Z,100.00
2023-05-08T06:21:01.661Z,100.00
2023-05-08T06:23:31.665Z,100.00
2023-05-08T06:26:00.337Z,100.00
2023-05-08T06:28:28.847Z,100.00
2023-05-08T06:30:59.631Z,100.00
2023-05-08T06:33:28.055Z,100.00
2023-05-08T06:36:03.799Z,100.00
2023-05-08T06:38:33.617Z,100.00
2023-05-08T06:41:02.074Z,100.00
2023-05-08T06:43:30.994Z,100.00
2023-05-08T06:45:59.420Z,100.00
2023-05-08T06:48:29.133Z,100.00
2023-05-08T06:50:59.293Z,100.00
2023-05-08T06:53:27.700Z,100.00
2023-05-08T06:55:58.700Z,100.00
2023-05-08T06:58:27.180Z,100.00
2023-05-08T07:00:55.842Z,100.00
2023-05-08T07:03:25.537Z,100.00
2023-05-08T07:05:53.882Z,100.00
2023-05-08T07:08:22.242Z,100.00
2023-05-08T07:10:50.754Z,100.00
2023-05-08T07:13:26.328Z,100.00
2023-05-08T07:15:55.262Z,100.00
2023-05-08T07:18:23.957Z,100.00
2023-05-08T07:20:52.486Z,100.00
2023-05-08T07:23:21.590Z,100.00
2023-05-08T07:25:50.324Z,100.00
2023-05-08T07:28:18.645Z,100.00
2023-05-08T07:30:48.617Z,100.00
2023-05-08T07:33:17.216Z,100.00
2023-05-08T07:35:45.813Z,100.00
2023-05-08T07:38:14.178Z,100.00
2023-05-08T07:40:42.651Z,100.00
2023-05-08T07:43:11.203Z,100.00
2023-05-08T07:45:39.564Z,100.00
2023-05-08T07:48:09.990Z,100.00
2023-05-08T07:51:49.049Z,100.00
2023-05-08T07:54:17.447Z,100.00
2023-05-08T07:56:45.835Z,100.00
2023-05-08T07:59:14.189Z,100.00
2023-05-08T08:01:47.170Z,100.00
2023-05-08T08:04:17.272Z,100.00
2023-05-08T08:06:45.674Z,100.00
2023-05-08T08:09:14.061Z,100.00
2023-05-08T08:11:49.644Z,100.00
2023-05-08T08:14:19.402Z,100.00
2023-05-08T08:16:47.910Z,100.00
2023-05-08T08:19:17.796Z,100.00
2023-05-08T08:21:46.752Z,100.00
2023-05-08T08:24:15.120Z,100.00
2023-05-08T08:26:43.756Z,100.00
2023-05-08T08:29:12.923Z,100.00
2023-05-08T08:31:41.696Z,100.00
2023-05-08T08:34:10.605Z,100.00
2023-05-08T08:36:40.603Z,100.00
2023-05-08T08:39:11.249Z,100.00
2023-05-08T08:41:41.268Z,100.00
2023-05-08T08:44:09.606Z,100.00
2023-05-08T08:46:45.841Z,100.00
2023-05-08T08:49:18.677Z,100.00
2023-05-08T08:51:53.578Z,100.00
2023-05-08T08:54:25.259Z,100.00
2023-05-08T08:56:54.702Z,100.00
2023-05-08T08:59:25.560Z,100.00
2023-05-08T09:01:57.884Z,100.00
2023-05-08T09:04:27.703Z,100.00
2023-05-08T09:07:02.732Z,100.00
2023-05-08T09:09:31.341Z,99.32
2023-05-08T09:11:59.661Z,93.12
2023-05-08T09:14:28.112Z,85.73
2023-05-08T09:16:56.478Z,87.35
2023-05-08T09:19:37.511Z,86.23
2023-05-08T09:22:09.209Z,79.83
2023-05-08T09:27:45.867Z,68.56
2023-05-08T09:30:15.356Z,64.00
2023-05-08T09:32:45.267Z,60.51
2023-05-08T09:35:18.739Z,56.24
2023-05-08T09:37:50.163Z,57.24
2023-05-08T09:40:20.724Z,54.10
2023-05-08T09:42:51.071Z,55.28
2023-05-08T09:45:31.353Z,57.91
2023-05-08T09:47:59.976Z,56.77
2023-05-08T09:50:30.032Z,58.93
2023-05-08T09:52:58.534Z,62.28
2023-05-08T09:55:27.100Z,64.11
2023-05-08T09:57:57.938Z,64.33
2023-05-08T10:00:27.326Z,64.68
2023-05-08T10:02:57.902Z,67.25
2023-05-08T10:05:33.332Z,68.45
2023-05-08T10:08:20.009Z,71.23
2023-05-08T10:10:48.580Z,71.68
2023-05-08T10:13:17.047Z,74.06
2023-05-08T10:15:46.158Z,74.60
2023-05-08T10:18:18.388Z,73.68
2023-05-08T10:20:49.689Z,72.87
2023-05-08T10:23:20.317Z,74.00
2023-05-08T10:25:58.913Z,75.44
2023-05-08T10:28:38.292Z,79.17
2023-05-08T10:31:09.232Z,81.17
2023-05-08T10:33:52.292Z,80.61
2023-05-08T10:36:21.591Z,80.12
2023-05-08T10:38:51.865Z,79.00
2023-05-08T10:41:20.840Z,78.32
2023-05-08T10:43:52.962Z,77.71
2023-05-08T10:46:26.799Z,82.87
2023-05-08T10:49:04.276Z,81.26
2023-05-08T10:51:45.277Z,78.39
2023-05-08T10:54:25.201Z,77.89
2023-05-08T10:57:07.504Z,76.14
2023-05-08T10:59:40.016Z,77.76
2023-05-08T11:02:09.382Z,78.89
2023-05-08T11:04:38.339Z,76.54
2023-05-08T11:07:06.909Z,77.08
2023-05-08T11:09:48.638Z,75.95
2023-05-08T11:12:24.912Z,77.11
2023-05-08T11:15:00.879Z,77.50
2023-05-08T11:17:29.462Z,76.91
2023-05-08T11:20:00.959Z,74.12
2023-05-08T11:22:32.656Z,73.39
2023-05-08T11:25:07.628Z,72.23
2023-05-08T11:27:47.780Z,69.20
2023-05-08T11:30:20.005Z,66.25
2023-05-08T11:33:15.231Z,59.45
2023-05-08T11:35:48.351Z,56.84
2023-05-08T11:38:19.326Z,53.96
2023-05-08T11:40:58.047Z,50.86
2023-05-08T11:43:32.265Z,50.40
2023-05-08T11:46:04.371Z,48.21
2023-05-08T11:48:33.447Z,47.06
2023-05-08T11:51:02.143Z,45.21
2023-05-08T11:53:31.442Z,47.23
2023-05-08T11:56:01.600Z,50.31
2023-05-08T11:58:30.887Z,51.45
2023-05-08T12:00:59.297Z,49.96
2023-05-08T12:03:27.872Z,52.90
2023-05-08T12:05:58.057Z,57.51
2023-05-08T12:08:27.180Z,61.02
2023-05-08T12:10:57.617Z,61.18
2023-05-08T12:13:29.126Z,63.08
2023-05-08T12:15:59.714Z,64.58
2023-05-08T12:18:30.792Z,67.67
2023-05-08T12:21:01.246Z,68.77
2023-05-08T12:23:30.890Z,68.82
2023-05-08T12:26:00.442Z,68.80
2023-05-08T12:28:36.205Z,67.48
2023-05-08T12:31:07.293Z,69.09
2023-05-08T12:33:35.895Z,68.38
2023-05-08T12:36:06.272Z,69.06
2023-05-08T12:38:34.652Z,66.72
2023-05-08T12:41:12.194Z,67.48
2023-05-08T12:43:41.912Z,66.06
2023-05-08T12:46:14.288Z,66.04
2023-05-08T12:48:42.748Z,67.62
2023-05-08T12:51:12.675Z,68.11
2023-05-08T12:53:41.151Z,71.07
2023-05-08T12:56:09.654Z,69.25
2023-05-08T12:58:39.246Z,69.32
2023-05-08T13:01:16.193Z,69.97
2023-05-08T13:03:47.221Z,70.18
2023-05-08T13:06:22.837Z,70.84
2023-05-08T13:08:55.363Z,73.32
2023-05-08T13:11:31.590Z,75.24
2023-05-08T13:14:00.126Z,75.53
2023-05-08T13:16:30.151Z,78.88
2023-05-08T13:18:58.607Z,80.19
2023-05-08T13:21:28.321Z,79.48
2023-05-08T13:24:01.433Z,79.45
2023-05-08T13:26:29.856Z,80.30
2023-05-08T13:28:58.573Z,79.97
2023-05-08T13:31:27.268Z,78.93
2023-05-08T13:34:00.187Z,81.08
2023-05-08T13:36:28.974Z,82.07
2023-05-08T13:38:57.432Z,83.52
2023-05-08T13:41:27.149Z,84.49
2023-05-08T13:43:55.533Z,82.92
2023-05-08T13:46:24.829Z,84.06
2023-05-08T13:48:55.924Z,82.98
2023-05-08T13:51:26.502Z,82.94
2023-05-08T13:53:54.840Z,82.27
2023-05-08T13:56:29.882Z,81.38
2023-05-08T13:58:59.366Z,80.63
2023-05-08T14:01:28.461Z,79.90
2023-05-08T14:03:56.920Z,78.41
2023-05-08T14:06:26.812Z,77.65
2023-05-08T14:08:56.907Z,76.62
2023-05-08T14:11:27.130Z,75.33
2023-05-08T14:13:55.611Z,74.48
2023-05-08T14:16:24.359Z,72.52
2023-05-08T14:18:52.789Z,72.24
2023-05-08T14:21:21.194Z,71.45
2023-05-08T14:23:52.315Z,69.96
2023-05-08T14:26:21.120Z,71.28
2023-05-08T14:28:49.744Z,71.51
2023-05-08T14:31:20.928Z,72.12
2023-05-08T14:33:50.577Z,71.56
2023-05-08T14:36:18.992Z,73.61
2023-05-08T14:38:47.430Z,70.39
2023-05-08T14:41:17.296Z,71.39
2023-05-08T14:43:46.950Z,72.17
2023-05-08T14:46:18.431Z,70.17
2023-05-08T14:48:46.917Z,68.77
2023-05-08T14:51:15.301Z,69.46
2023-05-08T14:53:44.034Z,69.29
2023-05-08T14:56:13.720Z,68.42
2023-05-08T14:58:43.863Z,69.82
2023-05-08T15:01:13.823Z,69.75
2023-05-08T15:03:42.410Z,70.42
2023-05-08T15:06:10.989Z,72.05
2023-05-08T15:08:39.455Z,72.28
2023-05-08T15:11:07.900Z,71.01
2023-05-08T15:13:36.271Z,69.70
2023-05-08T15:16:06.619Z,69.23
2023-05-08T15:18:35.006Z,70.32
2023-05-08T15:21:03.521Z,69.37
2023-05-08T15:23:32.585Z,73.42
2023-05-08T15:26:01.219Z,74.41
2023-05-08T15:28:29.666Z,74.65
2023-05-08T15:30:58.229Z,74.32
2023-05-08T15:33:34.828Z,73.60
2023-05-08T15:36:03.144Z,74.42
2023-05-08T15:38:32.047Z,73.94
2023-05-08T15:41:00.651Z,72.69
2023-05-08T15:43:32.049Z,72.91
2023-05-08T15:46:00.461Z,73.64
2023-05-08T15:49:34.022Z,75.57
2023-05-08T15:52:02.368Z,76.71
2023-05-08T15:54:31.024Z,77.13
2023-05-08T15:57:00.390Z,79.50
2023-05-08T15:59:29.221Z,79.19
2023-05-08T16:01:57.615Z,81.41
2023-05-08T16:04:27.390Z,79.57
2023-05-08T16:06:56.528Z,79.46
2023-05-08T16:09:24.899Z,79.42
2023-05-08T16:11:54.565Z,79.24
2023-05-08T16:14:22.940Z,81.01
2023-05-08T16:16:51.267Z,81.08
2023-05-08T16:19:19.587Z,81.62
2023-05-08T16:21:49.299Z,80.97
2023-05-08T16:24:17.711Z,78.93
2023-05-08T16:26:46.161Z,78.94
2023-05-08T16:29:14.511Z,79.18
2023-05-08T16:31:43.091Z,79.58
2023-05-08T16:34:11.518Z,80.09
2023-05-08T16:36:41.391Z,79.62
2023-05-08T16:39:12.465Z,80.26
2023-05-08T16:41:40.846Z,80.92
2023-05-08T16:44:09.189Z,77.29
2023-05-08T16:46:37.957Z,76.03
2023-05-08T16:49:06.559Z,77.91
2023-05-08T16:51:34.972Z,79.53
2023-05-08T16:54:03.351Z,79.17
2023-05-08T16:56:33.115Z,80.11
2023-05-08T16:59:07.205Z,80.82
2023-05-08T17:01:35.828Z,81.79
2023-05-08T17:04:04.241Z,80.75
2023-05-08T17:06:32.909Z,81.93
2023-05-08T17:09:10.527Z,82.64
2023-05-08T17:11:40.384Z,83.53
2023-05-08T17:14:08.696Z,83.90
2023-05-08T17:16:37.113Z,84.84
2023-05-08T17:19:05.519Z,85.62
2023-05-08T17:21:33.872Z,87.02
2023-05-08T17:24:02.318Z,87.39
2023-05-08T17:26:33.059Z,88.36
2023-05-08T17:29:02.782Z,88.06
2023-05-08T17:31:31.516Z,88.50
2023-05-08T17:34:01.192Z,88.15
2023-05-08T17:36:29.879Z,90.16
2023-05-08T17:38:58.774Z,90.02
2023-05-08T17:41:27.309Z,90.93
2023-05-08T17:43:58.752Z,91.07
2023-05-08T17:46:28.789Z,91.04
2023-05-08T17:48:57.167Z,91.75
2023-05-08T17:51:25.660Z,92.73
2023-05-08T17:53:55.942Z,93.89
2023-05-08T17:56:25.870Z,94.72
2023-05-08T17:58:55.679Z,94.91
2023-05-08T18:01:24.709Z,95.25
2023-05-08T18:03:55.157Z,95.06
2023-05-08T18:06:23.519Z,95.56
2023-05-08T18:08:51.909Z,96.11
2023-05-08T18:11:22.240Z,95.92
2023-05-08T18:13:52.471Z,96.48
2023-05-08T18:16:23.184Z,97.07
2023-05-08T18:18:56.910Z,97.83
2023-05-08T18:21:28.641Z,97.45
2023-05-08T18:23:57.069Z,98.04
2023-05-08T18:26:25.471Z,98.38
2023-05-08T18:28:53.785Z,99.56
2023-05-08T18:31:22.222Z,99.92
2023-05-08T18:33:50.676Z,100.00
2023-05-08T18:36:19.086Z,100.00
2023-05-08T18:38:49.264Z,100.00
2023-05-08T18:41:18.365Z,100.00
2023-05-08T18:43:47.303Z,100.00
2023-05-08T18:46:17.575Z,100.00
2023-05-08T18:48:46.422Z,100.00
2023-05-08T18:51:14.784Z,100.00
2023-05-08T18:53:43.162Z,100.00
2023-05-08T18:56:13.144Z,100.00
2023-05-08T18:58:41.714Z,100.00
2023-05-08T19:01:10.186Z,100.00
2023-05-08T19:03:38.973Z,100.00
2023-05-08T19:06:07.445Z,100.00
2023-05-08T19:08:35.915Z,100.00
2023-05-08T19:11:04.284Z,100.00
2023-05-08T19:13:34.056Z,100.00
2023-05-08T19:16:02.665Z,100.00
2023-05-08T19:18:31.740Z,100.00
2023-05-08T19:21:00.333Z,100.00
2023-05-08T19:23:28.670Z,100.00
2023-05-08T19:25:57.082Z,100.00
2023-05-08T19:28:25.652Z,100.00
2023-05-08T19:30:55.396Z,100.00
2023-05-08T19:33:23.963Z,100.00
2023-05-08T19:35:52.349Z,100.00
2023-05-08T19:38:20.835Z,100.00
2023-05-08T19:40:57.048Z,100.00
2023-05-08T19:43:27.124Z,100.00
2023-05-08T19:45:57.355Z,100.00
2023-05-08T19:48:25.853Z,100.00
2023-05-08T19:50:55.170Z,100.00
2023-05-08T19:53:23.798Z,100.00
2023-05-08T19:55:52.252Z,100.00
2023-05-08T19:58:20.687Z,100.00
2023-05-08T20:00:51.648Z,100.00
2023-05-08T20:03:21.878Z,100.00
2023-05-08T20:05:52.725Z,100.00
2023-05-08T20:08:21.224Z,100.00
2023-05-08T20:10:49.876Z,100.00
2023-05-08T20:13:18.565Z,100.00
2023-05-08T20:15:47.166Z,100.00
2023-05-08T20:18:15.873Z,100.00
2023-05-08T20:20:46.129Z,100.00
2023-05-08T20:23:14.568Z,100.00
2023-05-08T20:25:46.116Z,100.00
2023-05-08T20:28:15.071Z,100.00
2023-05-08T20:30:43.684Z,100.00
2023-05-08T20:33:12.161Z,100.00
2023-05-08T20:35:40.930Z,100.00
2023-05-08T20:38:10.887Z,100.00
2023-05-08T20:40:40.179Z,100.00
2023-05-08T20:43:09.363Z,100.00
2023-05-08T20:45:38.052Z,100.00
2023-05-08T20:48:07.456Z,100.00
2023-05-08T20:50:36.157Z,100.00
2023-05-08T20:53:04.614Z,100.00
2023-05-08T20:55:34.447Z,100.00
2023-05-08T20:58:04.080Z,100.00
2023-05-08T21:00:34.295Z,100.00
2023-05-08T21:03:03.363Z,100.00
2023-05-08T21:05:31.819Z,100.00
2023-05-08T21:08:02.342Z,100.00
2023-05-08T21:10:31.336Z,100.00
2023-05-08T21:13:01.233Z,100.00
2023-05-08T21:15:29.642Z,100.00
2023-05-08T21:17:58.321Z,100.00
2023-05-08T21:20:26.744Z,100.00
2023-05-08T21:22:55.176Z,100.00
2023-05-08T21:25:23.573Z,100.00
2023-05-08T21:27:53.379Z,100.00
2023-05-08T21:30:24.944Z,100.00
2023-05-08T21:32:54.883Z,100.00
2023-05-08T21:35:23.448Z,100.00
2023-05-08T21:37:54.517Z,100.00
2023-05-08T21:40:24.295Z,100.00
2023-05-08T21:42:52.915Z,100.00
2023-05-08T21:45:21.379Z,100.00
2023-05-08T21:47:53.473Z,100.00
2023-05-08T21:50:22.093Z,100.00
2023-05-08T21:52:50.562Z,100.00
2023-05-08T21:55:20.280Z,100.00
2023-05-08T21:57:48.948Z,100.00
2023-05-08T22:00:18.214Z,100.00
2023-05-08T22:02:51.015Z,100.00
2023-05-08T22:05:19.533Z,100.00
2023-05-08T22:07:48.067Z,100.00
2023-05-08T22:10:16.527Z,100.00
2023-05-08T22:12:44.912Z,100.00
2023-05-08T22:15:28.544Z,100.00
2023-05-08T22:18:02.305Z,100.00
2023-05-08T22:20:30.807Z,100.00
2023-05-08T22:22:59.169Z,100.00
2023-05-08T22:25:27.869Z,100.00
2023-05-08T22:27:56.276Z,100.00
2023-05-08T22:30:24.941Z,100.00
2023-05-08T22:32:56.250Z,100.00
2023-05-08T22:35:28.215Z,100.00
2023-05-08T22:37:57.883Z,100.00
2023-05-08T22:40:27.145Z,100.00
2023-05-08T22:42:58.560Z,100.00
2023-05-08T22:45:27.822Z,100.00
2023-05-08T22:47:56.543Z,100.00
2023-05-08T22:50:26.372Z,100.00
2023-05-08T22:52:54.746Z,100.00
2023-05-08T22:55:23.350Z,100.00
2023-05-08T22:57:51.660Z,100.00
2023-05-08T23:00:20.685Z,100.00
2023-05-08T23:02:49.033Z,100.00
2023-05-08T23:05:17.580Z,100.00
2023-05-08T23:07:47.370Z,100.00
2023-05-08T23:10:15.887Z,100.00
2023-05-08T23:12:44.491Z,100.00
2023-05-08T23:15:14.210Z,100.00
2023-05-08T23:17:42.833Z,100.00
2023-05-08T23:20:11.936Z,100.00
2023-05-08T23:22:40.342Z,100.00
2023-05-08T23:25:12.858Z,100.00
2023-05-08T23:27:41.593Z,100.00
2023-05-08T23:30:12.819Z,100.00
2023-05-08T23:32:41.333Z,100.00
2023-05-08T23:35:09.885Z,100.00
2023-05-08T23:37:39.763Z,100.00
2023-05-08T23:40:09.895Z,100.00
2023-05-08T23:42:40.537Z,100.00
2023-05-08T23:45:10.895Z,100.00
2023-05-08T23:47:39.485Z,100.00
2023-05-08T23:50:08.599Z,100.00
2023-05-08T23:52:37.076Z,100.00
2023-05-08T23:55:06.368Z,100.00
2023-05-08T23:57:34.996Z,100.00
